sensor_id;sensor_type;location;lat;lon;timestamp;temperature;humidity
40960;DHT22;27842;52.272;8.052;2023-03-01T00:01:29;2.10;97.00
40960;DHT22;27842;52.272;8.052;2023-03-01T00:03:55;2.10;97.00
40960;DHT22;27842;52.272;8.052;2023-03-01T00:06:21;2.10;97.00
40960;DHT22;27842;52.272;8.052;2023-03-01T00:08:47;2.10;97.10
40960;DHT22;27842;52.272;8.052;2023-03-01T00:11:19;2.00;97.10
40960;DHT22;27842;52.272;8.052;2023-03-01T00:13:46;2.00;97.10
40960;DHT22;27842;52.272;8.052;2023-03-01T00:16:15;2.00;97.20
40960;DHT22;27842;52.272;8.052;2023-03-01T00:18:42;1.90;97.30
40960;DHT22;27842;52.272;8.052;2023-03-01T00:21:08;1.90;97.50
40960;DHT22;27842;52.272;8.052;2023-03-01T00:23:35;1.90;97.50
40960;DHT22;27842;52.272;8.052;2023-03-01T00:26:01;1.80;97.60
40960;DHT22;27842;52.272;8.052;2023-03-01T00:28:26;1.80;97.70
40960;DHT22;27842;52.272;8.052;2023-03-01T00:30:52;1.80;97.70
40960;DHT22;27842;52.272;8.052;2023-03-01T00:33:18;1.80;97.80
40960;DHT22;27842;52.272;8.052;2023-03-01T00:35:43;1.80;97.80
40960;DHT22;27842;52.272;8.052;2023-03-01T00:38:09;1.70;97.90
40960;DHT22;27842;52.272;8.052;2023-03-01T00:40:35;1.70;97.90
40960;DHT22;27842;52.272;8.052;2023-03-01T00:43:02;1.70;97.90
40960;DHT22;27842;52.272;8.052;2023-03-01T00:45:28;1.70;98.00
40960;DHT22;27842;52.272;8.052;2023-03-01T00:47:56;1.60;98.10
40960;DHT22;27842;52.272;8.052;2023-03-01T00:50:22;1.60;98.20
40960;DHT22;27842;52.272;8.052;2023-03-01T00:52:52;1.60;98.30
40960;DHT22;27842;52.272;8.052;2023-03-01T00:55:18;1.60;98.20
40960;DHT22;27842;52.272;8.052;2023-03-01T00:57:43;1.60;98.20
40960;DHT22;27842;52.272;8.052;2023-03-01T01:00:09;1.60;98.30
40960;DHT22;27842;52.272;8.052;2023-03-01T01:02:37;1.60;98.30
40960;DHT22;27842;52.272;8.052;2023-03-01T01:05:03;1.60;98.40
40960;DHT22;27842;52.272;8.052;2023-03-01T01:07:29;1.60;98.40
40960;DHT22;27842;52.272;8.052;2023-03-01T01:09:54;1.60;98.40
40960;DHT22;27842;52.272;8.052;2023-03-01T01:12:20;1.60;98.40
40960;DHT22;27842;52.272;8.052;2023-03-01T01:14:46;1.60;98.40
40960;DHT22;27842;52.272;8.052;2023-03-01T01:17:11;1.60;98.40
40960;DHT22;27842;52.272;8.052;2023-03-01T01:19:37;1.70;98.40
40960;DHT22;27842;52.272;8.052;2023-03-01T01:22:03;1.60;98.30
40960;DHT22;27842;52.272;8.052;2023-03-01T01:24:29;1.60;98.40
40960;DHT22;27842;52.272;8.052;2023-03-01T01:26:54;1.60;98.40
40960;DHT22;27842;52.272;8.052;2023-03-01T01:29:20;1.60;98.50
40960;DHT22;27842;52.272;8.052;2023-03-01T01:31:45;1.60;98.50
40960;DHT22;27842;52.272;8.052;2023-03-01T01:34:15;1.60;98.60
40960;DHT22;27842;52.272;8.052;2023-03-01T01:36:41;1.60;98.70
40960;DHT22;27842;52.272;8.052;2023-03-01T01:39:06;1.50;98.60
40960;DHT22;27842;52.272;8.052;2023-03-01T01:41:33;1.50;98.70
40960;DHT22;27842;52.272;8.052;2023-03-01T01:44:20;1.50;98.70
40960;DHT22;27842;52.272;8.052;2023-03-01T01:47:06;1.50;98.80
40960;DHT22;27842;52.272;8.052;2023-03-01T01:49:54;1.40;98.80
40960;DHT22;27842;52.272;8.052;2023-03-01T01:52:25;1.40;98.90
40960;DHT22;27842;52.272;8.052;2023-03-01T01:55:00;1.30;99.00
40960;DHT22;27842;52.272;8.052;2023-03-01T01:57:48;1.40;99.10
40960;DHT22;27842;52.272;8.052;2023-03-01T02:00:18;1.30;99.20
40960;DHT22;27842;52.272;8.052;2023-03-01T02:02:46;1.30;99.30
40960;DHT22;27842;52.272;8.052;2023-03-01T02:05:20;1.30;99.40
40960;DHT22;27842;52.272;8.052;2023-03-01T02:07:49;1.30;99.30
40960;DHT22;27842;52.272;8.052;2023-03-01T02:10:15;1.30;99.40
40960;DHT22;27842;52.272;8.052;2023-03-01T02:12:41;1.30;99.40
40960;DHT22;27842;52.272;8.052;2023-03-01T02:15:07;1.30;99.50
40960;DHT22;27842;52.272;8.052;2023-03-01T02:17:33;1.20;99.50
40960;DHT22;27842;52.272;8.052;2023-03-01T02:20:22;1.20;99.50
40960;DHT22;27842;52.272;8.052;2023-03-01T02:22:50;1.20;99.60
40960;DHT22;27842;52.272;8.052;2023-03-01T02:30:38;1.00;99.90
40960;DHT22;27842;52.272;8.052;2023-03-01T02:33:25;1.00;99.90
40960;DHT22;27842;52.272;8.052;2023-03-01T02:35:52;0.90;99.90
40960;DHT22;27842;52.272;8.052;2023-03-01T02:38:18;0.90;99.90
40960;DHT22;27842;52.272;8.052;2023-03-01T02:40:45;0.90;99.90
40960;DHT22;27842;52.272;8.052;2023-03-01T02:43:12;0.90;99.90
40960;DHT22;27842;52.272;8.052;2023-03-01T02:45:47;0.90;99.90
40960;DHT22;27842;52.272;8.052;2023-03-01T02:48:13;0.90;99.90
40960;DHT22;27842;52.272;8.052;2023-03-01T02:50:52;1.00;99.90
40960;DHT22;27842;52.272;8.052;2023-03-01T02:53:33;1.00;99.90
40960;DHT22;27842;52.272;8.052;2023-03-01T02:56:00;1.00;99.90
40960;DHT22;27842;52.272;8.052;2023-03-01T02:58:26;0.90;99.90
40960;DHT22;27842;52.272;8.052;2023-03-01T03:00:52;0.90;99.90
40960;DHT22;27842;52.272;8.052;2023-03-01T03:03:19;0.90;99.90
40960;DHT22;27842;52.272;8.052;2023-03-01T03:05:46;0.90;99.90
40960;DHT22;27842;52.272;8.052;2023-03-01T03:08:12;0.90;99.90
40960;DHT22;27842;52.272;8.052;2023-03-01T03:10:40;0.90;99.90
40960;DHT22;27842;52.272;8.052;2023-03-01T03:13:09;0.90;99.90
40960;DHT22;27842;52.272;8.052;2023-03-01T03:15:35;0.80;99.90
40960;DHT22;27842;52.272;8.052;2023-03-01T03:18:04;0.80;99.90
40960;DHT22;27842;52.272;8.052;2023-03-01T03:20:30;0.80;99.90
40960;DHT22;27842;52.272;8.052;2023-03-01T03:22:56;0.80;99.90
40960;DHT22;27842;52.272;8.052;2023-03-01T03:25:24;0.80;99.90
40960;DHT22;27842;52.272;8.052;2023-03-01T03:27:51;0.80;99.90
40960;DHT22;27842;52.272;8.052;2023-03-01T03:30:29;0.80;99.90
40960;DHT22;27842;52.272;8.052;2023-03-01T03:32:56;0.80;99.90
40960;DHT22;27842;52.272;8.052;2023-03-01T03:35:28;0.70;99.90
40960;DHT22;27842;52.272;8.052;2023-03-01T03:37:57;0.70;99.90
40960;DHT22;27842;52.272;8.052;2023-03-01T03:40:39;0.70;99.90
40960;DHT22;27842;52.272;8.052;2023-03-01T03:43:14;0.70;99.90
40960;DHT22;27842;52.272;8.052;2023-03-01T03:45:40;0.70;99.90
40960;DHT22;27842;52.272;8.052;2023-03-01T03:48:07;0.70;99.90
40960;DHT22;27842;52.272;8.052;2023-03-01T03:50:34;0.70;99.90
40960;DHT22;27842;52.272;8.052;2023-03-01T03:53:01;0.70;99.90
40960;DHT22;27842;52.272;8.052;2023-03-01T03:55:27;0.70;99.90
40960;DHT22;27842;52.272;8.052;2023-03-01T03:57:57;0.70;99.90
40960;DHT22;27842;52.272;8.052;2023-03-01T04:00:23;0.70;99.90
40960;DHT22;27842;52.272;8.052;2023-03-01T04:02:49;0.70;99.90
40960;DHT22;27842;52.272;8.052;2023-03-01T04:05:17;0.60;99.90
40960;DHT22;27842;52.272;8.052;2023-03-01T04:07:44;0.70;99.90
40960;DHT22;27842;52.272;8.052;2023-03-01T04:10:13;0.70;99.90
40960;DHT22;27842;52.272;8.052;2023-03-01T04:12:39;0.60;99.90
40960;DHT22;27842;52.272;8.052;2023-03-01T04:15:06;0.60;99.90
40960;DHT22;27842;52.272;8.052;2023-03-01T04:17:43;0.60;99.90
40960;DHT22;27842;52.272;8.052;2023-03-01T04:20:10;0.60;99.90
40960;DHT22;27842;52.272;8.052;2023-03-01T04:22:37;0.60;99.90
40960;DHT22;27842;52.272;8.052;2023-03-01T04:25:03;0.50;99.90
40960;DHT22;27842;52.272;8.052;2023-03-01T04:27:30;0.50;99.90
40960;DHT22;27842;52.272;8.052;2023-03-01T04:29:55;0.50;99.90
40960;DHT22;27842;52.272;8.052;2023-03-01T04:32:21;0.40;99.90
40960;DHT22;27842;52.272;8.052;2023-03-01T04:34:46;0.40;99.90
40960;DHT22;27842;52.272;8.052;2023-03-01T04:37:12;0.40;99.90
40960;DHT22;27842;52.272;8.052;2023-03-01T04:39:37;0.50;99.90
40960;DHT22;27842;52.272;8.052;2023-03-01T04:42:16;0.50;99.90
40960;DHT22;27842;52.272;8.052;2023-03-01T04:44:43;0.50;99.90
40960;DHT22;27842;52.272;8.052;2023-03-01T04:47:08;0.40;99.90
40960;DHT22;27842;52.272;8.052;2023-03-01T04:49:34;0.50;99.90
40960;DHT22;27842;52.272;8.052;2023-03-01T04:51:59;0.40;99.90
40960;DHT22;27842;52.272;8.052;2023-03-01T04:54:28;0.40;99.90
40960;DHT22;27842;52.272;8.052;2023-03-01T04:56:54;0.40;99.90
40960;DHT22;27842;52.272;8.052;2023-03-01T04:59:20;0.40;99.90
40960;DHT22;27842;52.272;8.052;2023-03-01T05:01:51;0.30;99.90
40960;DHT22;27842;52.272;8.052;2023-03-01T05:04:16;0.40;99.90
40960;DHT22;27842;52.272;8.052;2023-03-01T05:06:42;0.30;99.90
40960;DHT22;27842;52.272;8.052;2023-03-01T05:09:08;0.40;99.90
40960;DHT22;27842;52.272;8.052;2023-03-01T05:11:34;0.40;99.90
40960;DHT22;27842;52.272;8.052;2023-03-01T05:14:08;0.30;99.90
40960;DHT22;27842;52.272;8.052;2023-03-01T05:16:34;0.30;99.90
40960;DHT22;27842;52.272;8.052;2023-03-01T05:19:02;0.30;99.90
40960;DHT22;27842;52.272;8.052;2023-03-01T05:21:37;0.20;99.90
40960;DHT22;27842;52.272;8.052;2023-03-01T05:24:22;0.20;99.90
40960;DHT22;27842;52.272;8.052;2023-03-01T05:26:48;0.20;99.90
40960;DHT22;27842;52.272;8.052;2023-03-01T05:29:13;0.20;99.90
40960;DHT22;27842;52.272;8.052;2023-03-01T05:31:39;0.20;99.90
40960;DHT22;27842;52.272;8.052;2023-03-01T05:34:04;0.20;99.90
40960;DHT22;27842;52.272;8.052;2023-03-01T05:36:31;0.20;99.90
40960;DHT22;27842;52.272;8.052;2023-03-01T05:38:57;0.20;99.90
40960;DHT22;27842;52.272;8.052;2023-03-01T05:41:22;0.20;99.90
40960;DHT22;27842;52.272;8.052;2023-03-01T05:43:48;0.20;99.90
40960;DHT22;27842;52.272;8.052;2023-03-01T05:46:13;0.20;99.90
40960;DHT22;27842;52.272;8.052;2023-03-01T05:48:40;0.20;99.90
40960;DHT22;27842;52.272;8.052;2023-03-01T05:51:06;0.20;99.90
40960;DHT22;27842;52.272;8.052;2023-03-01T05:53:31;0.20;99.90
40960;DHT22;27842;52.272;8.052;2023-03-01T05:55:57;0.10;99.90
40960;DHT22;27842;52.272;8.052;2023-03-01T05:58:23;0.10;99.90
40960;DHT22;27842;52.272;8.052;2023-03-01T06:00:49;0.10;99.90
40960;DHT22;27842;52.272;8.052;2023-03-01T06:03:16;0.10;99.90
40960;DHT22;27842;52.272;8.052;2023-03-01T06:05:42;0.20;99.90
40960;DHT22;27842;52.272;8.052;2023-03-01T06:08:10;0.10;99.90
40960;DHT22;27842;52.272;8.052;2023-03-01T06:10:36;0.10;99.90
40960;DHT22;27842;52.272;8.052;2023-03-01T06:13:02;0.10;99.90
40960;DHT22;27842;52.272;8.052;2023-03-01T06:15:28;0.10;99.90
40960;DHT22;27842;52.272;8.052;2023-03-01T06:17:55;0.10;99.90
40960;DHT22;27842;52.272;8.052;2023-03-01T06:20:26;0.10;99.90
40960;DHT22;27842;52.272;8.052;2023-03-01T06:22:52;0.10;99.90
40960;DHT22;27842;52.272;8.052;2023-03-01T06:25:20;0.00;99.90
40960;DHT22;27842;52.272;8.052;2023-03-01T06:27:47;0.00;99.90
40960;DHT22;27842;52.272;8.052;2023-03-01T06:30:15;0.00;99.90
40960;DHT22;27842;52.272;8.052;2023-03-01T06:32:42;0.00;99.90
40960;DHT22;27842;52.272;8.052;2023-03-01T06:35:09;0.00;99.90
40960;DHT22;27842;52.272;8.052;2023-03-01T06:37:35;0.00;99.90
40960;DHT22;27842;52.272;8.052;2023-03-01T06:40:04;0.00;99.90
40960;DHT22;27842;52.272;8.052;2023-03-01T06:42:35;0.00;99.90
40960;DHT22;27842;52.272;8.052;2023-03-01T06:45:01;0.10;99.90
40960;DHT22;27842;52.272;8.052;2023-03-01T06:47:26;0.10;99.90
40960;DHT22;27842;52.272;8.052;2023-03-01T06:49:52;0.10;99.90
40960;DHT22;27842;52.272;8.052;2023-03-01T06:52:17;0.10;99.90
40960;DHT22;27842;52.272;8.052;2023-03-01T06:54:43;0.10;99.90
40960;DHT22;27842;52.272;8.052;2023-03-01T06:57:08;0.00;99.90
40960;DHT22;27842;52.272;8.052;2023-03-01T06:59:34;0.00;99.90
40960;DHT22;27842;52.272;8.052;2023-03-01T07:01:59;-0.10;99.90
40960;DHT22;27842;52.272;8.052;2023-03-01T07:04:25;-0.10;99.90
40960;DHT22;27842;52.272;8.052;2023-03-01T07:06:53;-0.10;99.90
40960;DHT22;27842;52.272;8.052;2023-03-01T07:09:23;-0.10;99.90
40960;DHT22;27842;52.272;8.052;2023-03-01T07:11:50;-0.10;99.90
40960;DHT22;27842;52.272;8.052;2023-03-01T07:14:16;-0.10;99.90
40960;DHT22;27842;52.272;8.052;2023-03-01T07:16:42;-0.10;99.90
40960;DHT22;27842;52.272;8.052;2023-03-01T07:19:07;-0.10;99.90
40960;DHT22;27842;52.272;8.052;2023-03-01T07:21:33;-0.10;99.90
40960;DHT22;27842;52.272;8.052;2023-03-01T07:23:58;-0.10;99.90
40960;DHT22;27842;52.272;8.052;2023-03-01T07:26:24;0.00;99.90
40960;DHT22;27842;52.272;8.052;2023-03-01T07:28:49;0.00;99.90
40960;DHT22;27842;52.272;8.052;2023-03-01T07:31:15;0.00;99.90
40960;DHT22;27842;52.272;8.052;2023-03-01T07:33:41;0.00;99.90
40960;DHT22;27842;52.272;8.052;2023-03-01T07:36:07;0.00;99.90
40960;DHT22;27842;52.272;8.052;2023-03-01T07:38:32;0.10;99.90
40960;DHT22;27842;52.272;8.052;2023-03-01T07:41:03;0.10;99.90
40960;DHT22;27842;52.272;8.052;2023-03-01T07:43:30;0.20;99.90
40960;DHT22;27842;52.272;8.052;2023-03-01T07:46:01;0.10;99.90
40960;DHT22;27842;52.272;8.052;2023-03-01T07:48:27;0.20;99.90
40960;DHT22;27842;52.272;8.052;2023-03-01T07:50:53;0.20;99.90
40960;DHT22;27842;52.272;8.052;2023-03-01T07:53:18;0.20;99.90
40960;DHT22;27842;52.272;8.052;2023-03-01T07:55:44;0.20;99.90
40960;DHT22;27842;52.272;8.052;2023-03-01T07:58:10;0.30;99.90
40960;DHT22;27842;52.272;8.052;2023-03-01T08:00:35;0.40;99.90
40960;DHT22;27842;52.272;8.052;2023-03-01T08:03:01;0.40;99.90
40960;DHT22;27842;52.272;8.052;2023-03-01T08:05:28;0.50;99.90
40960;DHT22;27842;52.272;8.052;2023-03-01T08:07:54;0.60;99.90
40960;DHT22;27842;52.272;8.052;2023-03-01T08:10:19;0.60;99.90
40960;DHT22;27842;52.272;8.052;2023-03-01T08:12:45;0.70;99.90
40960;DHT22;27842;52.272;8.052;2023-03-01T08:15:11;0.80;99.90
40960;DHT22;27842;52.272;8.052;2023-03-01T08:17:36;0.80;99.90
40960;DHT22;27842;52.272;8.052;2023-03-01T08:20:02;0.80;99.90
40960;DHT22;27842;52.272;8.052;2023-03-01T08:22:29;0.80;99.90
40960;DHT22;27842;52.272;8.052;2023-03-01T08:24:55;0.90;99.90
40960;DHT22;27842;52.272;8.052;2023-03-01T08:27:21;0.90;99.90
40960;DHT22;27842;52.272;8.052;2023-03-01T08:29:47;1.00;99.90
40960;DHT22;27842;52.272;8.052;2023-03-01T08:32:12;1.10;99.90
40960;DHT22;27842;52.272;8.052;2023-03-01T08:34:38;1.20;99.90
40960;DHT22;27842;52.272;8.052;2023-03-01T08:37:06;1.20;99.90
40960;DHT22;27842;52.272;8.052;2023-03-01T08:39:32;1.30;99.90
40960;DHT22;27842;52.272;8.052;2023-03-01T08:41:58;1.40;99.90
40960;DHT22;27842;52.272;8.052;2023-03-01T08:44:23;1.50;99.90
40960;DHT22;27842;52.272;8.052;2023-03-01T08:46:50;1.60;99.90
40960;DHT22;27842;52.272;8.052;2023-03-01T08:49:18;1.70;99.90
40960;DHT22;27842;52.272;8.052;2023-03-01T08:51:45;1.80;99.90
40960;DHT22;27842;52.272;8.052;2023-03-01T08:54:15;1.80;99.90
40960;DHT22;27842;52.272;8.052;2023-03-01T08:56:42;1.90;99.90
40960;DHT22;27842;52.272;8.052;2023-03-01T08:59:08;2.00;99.90
40960;DHT22;27842;52.272;8.052;2023-03-01T09:01:34;2.10;99.90
40960;DHT22;27842;52.272;8.052;2023-03-01T09:04:00;2.20;99.90
40960;DHT22;27842;52.272;8.052;2023-03-01T09:06:25;2.30;99.90
40960;DHT22;27842;52.272;8.052;2023-03-01T09:08:51;2.30;99.90
40960;DHT22;27842;52.272;8.052;2023-03-01T09:11:20;2.40;99.90
40960;DHT22;27842;52.272;8.052;2023-03-01T09:13:47;2.50;99.90
40960;DHT22;27842;52.272;8.052;2023-03-01T09:16:14;2.60;99.90
40960;DHT22;27842;52.272;8.052;2023-03-01T09:18:40;2.70;99.60
40960;DHT22;27842;52.272;8.052;2023-03-01T09:21:09;2.90;99.20
40960;DHT22;27842;52.272;8.052;2023-03-01T09:23:42;3.00;98.70
40960;DHT22;27842;52.272;8.052;2023-03-01T09:26:11;3.10;98.60
40960;DHT22;27842;52.272;8.052;2023-03-01T09:28:37;3.40;98.20
40960;DHT22;27842;52.272;8.052;2023-03-01T09:31:03;3.50;97.70
40960;DHT22;27842;52.272;8.052;2023-03-01T09:33:30;3.70;96.80
40960;DHT22;27842;52.272;8.052;2023-03-01T09:36:02;3.90;96.30
40960;DHT22;27842;52.272;8.052;2023-03-01T09:38:28;4.10;95.40
40960;DHT22;27842;52.272;8.052;2023-03-01T09:40:54;4.30;93.40
40960;DHT22;27842;52.272;8.052;2023-03-01T09:43:46;4.40;92.20
40960;DHT22;27842;52.272;8.052;2023-03-01T09:46:14;4.50;91.70
40960;DHT22;27842;52.272;8.052;2023-03-01T09:48:50;4.50;91.30
40960;DHT22;27842;52.272;8.052;2023-03-01T09:51:19;4.60;90.10
40960;DHT22;27842;52.272;8.052;2023-03-01T09:53:47;4.60;88.00
40960;DHT22;27842;52.272;8.052;2023-03-01T09:56:41;4.70;89.10
40960;DHT22;27842;52.272;8.052;2023-03-01T10:01:46;4.90;87.20
40960;DHT22;27842;52.272;8.052;2023-03-01T10:09:38;5.00;85.90
40960;DHT22;27842;52.272;8.052;2023-03-01T10:12:12;5.00;83.60
40960;DHT22;27842;52.272;8.052;2023-03-01T10:15:04;5.00;85.40
40960;DHT22;27842;52.272;8.052;2023-03-01T10:17:38;5.10;83.60
40960;DHT22;27842;52.272;8.052;2023-03-01T10:20:24;5.10;83.80
40960;DHT22;27842;52.272;8.052;2023-03-01T10:22:51;5.10;83.80
40960;DHT22;27842;52.272;8.052;2023-03-01T10:28:17;5.20;83.70
40960;DHT22;27842;52.272;8.052;2023-03-01T10:30:45;5.20;82.30
40960;DHT22;27842;52.272;8.052;2023-03-01T10:33:24;5.20;81.90
40960;DHT22;27842;52.272;8.052;2023-03-01T10:35:51;5.20;81.40
40960;DHT22;27842;52.272;8.052;2023-03-01T10:38:18;5.10;80.70
40960;DHT22;27842;52.272;8.052;2023-03-01T10:43:17;5.20;79.20
40960;DHT22;27842;52.272;8.052;2023-03-01T10:45:43;5.10;79.60
40960;DHT22;27842;52.272;8.052;2023-03-01T10:48:22;5.10;80.40
40960;DHT22;27842;52.272;8.052;2023-03-01T10:53:40;5.20;79.10
40960;DHT22;27842;52.272;8.052;2023-03-01T10:56:10;5.20;79.20
40960;DHT22;27842;52.272;8.052;2023-03-01T10:58:58;5.20;79.00
40960;DHT22;27842;52.272;8.052;2023-03-01T11:01:26;5.30;77.90
40960;DHT22;27842;52.272;8.052;2023-03-01T11:06:30;5.20;78.10
40960;DHT22;27842;52.272;8.052;2023-03-01T11:08:56;5.20;78.40
40960;DHT22;27842;52.272;8.052;2023-03-01T11:11:33;5.20;78.50
40960;DHT22;27842;52.272;8.052;2023-03-01T11:14:18;5.30;77.30
40960;DHT22;27842;52.272;8.052;2023-03-01T11:16:45;5.30;75.20
40960;DHT22;27842;52.272;8.052;2023-03-01T11:24:48;5.30;77.70
40960;DHT22;27842;52.272;8.052;2023-03-01T11:27:36;5.30;77.40
40960;DHT22;27842;52.272;8.052;2023-03-01T11:35:28;5.40;78.10
40960;DHT22;27842;52.272;8.052;2023-03-01T11:38:09;5.50;77.40
40960;DHT22;27842;52.272;8.052;2023-03-01T11:40:40;5.60;76.30
40960;DHT22;27842;52.272;8.052;2023-03-01T11:43:28;5.60;75.30
40960;DHT22;27842;52.272;8.052;2023-03-01T11:46:12;5.60;74.90
40960;DHT22;27842;52.272;8.052;2023-03-01T11:57:49;5.70;74.50
40960;DHT22;27842;52.272;8.052;2023-03-01T12:00:44;5.70;74.90
40960;DHT22;27842;52.272;8.052;2023-03-01T12:11:54;5.90;75.10
40960;DHT22;27842;52.272;8.052;2023-03-01T12:22:29;6.10;72.10
40960;DHT22;27842;52.272;8.052;2023-03-01T12:25:16;6.10;73.10
40960;DHT22;27842;52.272;8.052;2023-03-01T12:36:29;6.30;71.20
40960;DHT22;27842;52.272;8.052;2023-03-01T12:44:13;6.40;69.00
40960;DHT22;27842;52.272;8.052;2023-03-01T12:47:07;6.50;69.10
40960;DHT22;27842;52.272;8.052;2023-03-01T12:49:57;6.60;67.90
40960;DHT22;27842;52.272;8.052;2023-03-01T12:52:33;6.60;68.20
40960;DHT22;27842;52.272;8.052;2023-03-01T12:55:01;6.60;68.20
40960;DHT22;27842;52.272;8.052;2023-03-01T12:57:39;6.60;68.30
40960;DHT22;27842;52.272;8.052;2023-03-01T13:08:14;6.90;68.40
40960;DHT22;27842;52.272;8.052;2023-03-01T13:13:39;7.00;67.80
40960;DHT22;27842;52.272;8.052;2023-03-01T13:16:22;7.10;67.70
40960;DHT22;27842;52.272;8.052;2023-03-01T13:18:48;7.10;65.90
40960;DHT22;27842;52.272;8.052;2023-03-01T13:21:30;7.20;67.50
40960;DHT22;27842;52.272;8.052;2023-03-01T13:23:55;7.30;66.00
40960;DHT22;27842;52.272;8.052;2023-03-01T13:26:21;7.20;67.00
40960;DHT22;27842;52.272;8.052;2023-03-01T13:33:50;7.40;66.70
40960;DHT22;27842;52.272;8.052;2023-03-01T13:44:34;7.30;64.90
40960;DHT22;27842;52.272;8.052;2023-03-01T14:27:52;7.50;62.20
40960;DHT22;27842;52.272;8.052;2023-03-01T14:30:33;7.60;62.40
40960;DHT22;27842;52.272;8.052;2023-03-01T14:33:01;7.60;62.80
40960;DHT22;27842;52.272;8.052;2023-03-01T14:35:33;7.60;62.60
40960;DHT22;27842;52.272;8.052;2023-03-01T14:37:59;7.60;62.90
40960;DHT22;27842;52.272;8.052;2023-03-01T14:40:43;7.50;63.30
40960;DHT22;27842;52.272;8.052;2023-03-01T14:43:11;7.50;64.40
40960;DHT22;27842;52.272;8.052;2023-03-01T14:45:37;7.40;63.90
40960;DHT22;27842;52.272;8.052;2023-03-01T14:48:04;7.40;64.30
40960;DHT22;27842;52.272;8.052;2023-03-01T14:50:32;7.30;64.90
40960;DHT22;27842;52.272;8.052;2023-03-01T14:53:03;7.30;65.00
40960;DHT22;27842;52.272;8.052;2023-03-01T14:55:35;7.20;65.10
40960;DHT22;27842;52.272;8.052;2023-03-01T14:58:09;7.20;65.30
40960;DHT22;27842;52.272;8.052;2023-03-01T15:00:37;7.20;65.00
40960;DHT22;27842;52.272;8.052;2023-03-01T15:03:11;7.10;65.10
40960;DHT22;27842;52.272;8.052;2023-03-01T15:05:39;7.00;65.50
40960;DHT22;27842;52.272;8.052;2023-03-01T15:08:06;7.00;65.70
40960;DHT22;27842;52.272;8.052;2023-03-01T15:10:36;7.00;65.80
40960;DHT22;27842;52.272;8.052;2023-03-01T15:13:22;6.90;66.00
40960;DHT22;27842;52.272;8.052;2023-03-01T15:15:50;6.90;66.30
40960;DHT22;27842;52.272;8.052;2023-03-01T15:18:19;6.90;66.50
40960;DHT22;27842;52.272;8.052;2023-03-01T15:20:47;6.90;66.40
40960;DHT22;27842;52.272;8.052;2023-03-01T15:23:28;6.80;66.60
40960;DHT22;27842;52.272;8.052;2023-03-01T15:25:55;6.90;66.80
40960;DHT22;27842;52.272;8.052;2023-03-01T15:28:34;6.90;66.40
40960;DHT22;27842;52.272;8.052;2023-03-01T15:31:23;6.80;66.00
40960;DHT22;27842;52.272;8.052;2023-03-01T15:33:49;6.80;66.30
40960;DHT22;27842;52.272;8.052;2023-03-01T15:36:43;6.80;66.30
40960;DHT22;27842;52.272;8.052;2023-03-01T15:45:23;6.80;65.90
40960;DHT22;27842;52.272;8.052;2023-03-01T15:47:55;6.80;65.70
40960;DHT22;27842;52.272;8.052;2023-03-01T15:50:32;6.70;65.30
40960;DHT22;27842;52.272;8.052;2023-03-01T15:53:00;6.70;65.40
40960;DHT22;27842;52.272;8.052;2023-03-01T15:55:27;6.70;65.50
40960;DHT22;27842;52.272;8.052;2023-03-01T15:58:10;6.70;65.20
40960;DHT22;27842;52.272;8.052;2023-03-01T16:00:37;6.70;64.90
40960;DHT22;27842;52.272;8.052;2023-03-01T16:03:04;6.70;64.80
40960;DHT22;27842;52.272;8.052;2023-03-01T16:05:32;6.70;64.80
40960;DHT22;27842;52.272;8.052;2023-03-01T16:08:01;6.70;63.90
40960;DHT22;27842;52.272;8.052;2023-03-01T16:10:27;6.60;64.00
40960;DHT22;27842;52.272;8.052;2023-03-01T16:12:57;6.60;64.50
40960;DHT22;27842;52.272;8.052;2023-03-01T16:15:28;6.70;64.10
40960;DHT22;27842;52.272;8.052;2023-03-01T16:17:54;6.60;64.50
40960;DHT22;27842;52.272;8.052;2023-03-01T16:20:20;6.60;64.10
40960;DHT22;27842;52.272;8.052;2023-03-01T16:22:46;6.50;64.60
40960;DHT22;27842;52.272;8.052;2023-03-01T16:25:17;6.60;64.50
40960;DHT22;27842;52.272;8.052;2023-03-01T16:27:45;6.60;64.00
40960;DHT22;27842;52.272;8.052;2023-03-01T16:30:12;6.50;64.40
40960;DHT22;27842;52.272;8.052;2023-03-01T16:32:39;6.50;64.70
40960;DHT22;27842;52.272;8.052;2023-03-01T16:35:06;6.50;65.40
40960;DHT22;27842;52.272;8.052;2023-03-01T16:37:33;6.50;65.50
40960;DHT22;27842;52.272;8.052;2023-03-01T16:39:58;6.40;65.50
40960;DHT22;27842;52.272;8.052;2023-03-01T16:42:24;6.40;65.80
40960;DHT22;27842;52.272;8.052;2023-03-01T16:44:59;6.40;65.80
40960;DHT22;27842;52.272;8.052;2023-03-01T16:47:25;6.40;65.90
40960;DHT22;27842;52.272;8.052;2023-03-01T16:49:52;6.30;66.40
40960;DHT22;27842;52.272;8.052;2023-03-01T16:52:18;6.30;66.80
40960;DHT22;27842;52.272;8.052;2023-03-01T16:54:43;6.30;67.30
40960;DHT22;27842;52.272;8.052;2023-03-01T16:57:09;6.30;67.30
40960;DHT22;27842;52.272;8.052;2023-03-01T16:59:35;6.30;67.80
40960;DHT22;27842;52.272;8.052;2023-03-01T17:02:01;6.20;68.00
40960;DHT22;27842;52.272;8.052;2023-03-01T17:04:27;6.20;68.30
40960;DHT22;27842;52.272;8.052;2023-03-01T17:06:52;6.20;68.10
40960;DHT22;27842;52.272;8.052;2023-03-01T17:09:18;6.20;68.30
40960;DHT22;27842;52.272;8.052;2023-03-01T17:11:47;6.20;68.50
40960;DHT22;27842;52.272;8.052;2023-03-01T17:14:13;6.10;68.50
40960;DHT22;27842;52.272;8.052;2023-03-01T17:16:40;6.10;69.10
40960;DHT22;27842;52.272;8.052;2023-03-01T17:19:06;6.10;69.20
40960;DHT22;27842;52.272;8.052;2023-03-01T17:21:32;6.10;69.20
40960;DHT22;27842;52.272;8.052;2023-03-01T17:23:58;6.10;69.30
40960;DHT22;27842;52.272;8.052;2023-03-01T17:26:24;6.10;69.30
40960;DHT22;27842;52.272;8.052;2023-03-01T17:28:49;6.00;69.60
40960;DHT22;27842;52.272;8.052;2023-03-01T17:31:17;6.00;69.90
40960;DHT22;27842;52.272;8.052;2023-03-01T17:33:43;6.00;69.90
40960;DHT22;27842;52.272;8.052;2023-03-01T17:36:16;6.00;69.90
40960;DHT22;27842;52.272;8.052;2023-03-01T17:38:42;6.00;69.50
40960;DHT22;27842;52.272;8.052;2023-03-01T17:41:07;5.90;69.40
40960;DHT22;27842;52.272;8.052;2023-03-01T17:43:35;5.90;69.50
40960;DHT22;27842;52.272;8.052;2023-03-01T17:46:01;5.90;69.50
40960;DHT22;27842;52.272;8.052;2023-03-01T17:48:26;5.80;69.70
40960;DHT22;27842;52.272;8.052;2023-03-01T17:50:52;5.80;70.00
40960;DHT22;27842;52.272;8.052;2023-03-01T17:53:17;5.80;69.90
40960;DHT22;27842;52.272;8.052;2023-03-01T17:55:44;5.80;70.00
40960;DHT22;27842;52.272;8.052;2023-03-01T17:58:12;5.70;70.10
40960;DHT22;27842;52.272;8.052;2023-03-01T18:00:38;5.80;70.20
40960;DHT22;27842;52.272;8.052;2023-03-01T18:03:04;5.70;70.20
40960;DHT22;27842;52.272;8.052;2023-03-01T18:05:35;5.70;70.40
40960;DHT22;27842;52.272;8.052;2023-03-01T18:08:02;5.70;70.50
40960;DHT22;27842;52.272;8.052;2023-03-01T18:10:28;5.70;70.50
40960;DHT22;27842;52.272;8.052;2023-03-01T18:12:53;5.70;70.80
40960;DHT22;27842;52.272;8.052;2023-03-01T18:15:19;5.70;70.80
40960;DHT22;27842;52.272;8.052;2023-03-01T18:17:44;5.60;70.80
40960;DHT22;27842;52.272;8.052;2023-03-01T18:20:10;5.60;71.10
40960;DHT22;27842;52.272;8.052;2023-03-01T18:22:37;5.50;71.30